Terminal Aerodrome Forecast
Issued by NWS Sterling, VA

Current Version | Previous Version | Text Only | Print | Product List | Glossary Off
Versions: 1 2 3 4 5 6 7 8 9 10 11 12 13 14 15 16 17 18 19

000
FTUS41 KLWX 301141
TAFMRB
TAF
KMRB 301141Z 3012/3112 VRB03KT P6SM BKN045
     FM301400 VRB03KT 3SM -TSRA BKN040CB
     FM301600 25005KT 3SM TSRA BKN050CB
     FM301800 27007KT P6SM VCTS BKN050CB
     FM302000 29009KT P6SM VCTS SCT060CB
     FM302200 30009KT P6SM SCT100
     FM310200 29005KT P6SM SKC=

USA.gov is the U.S. government's official web portal to all federal, state and local government web resources and services.